createdAt,value
2018-07-19T00:01:20.428Z,69.50
2018-07-19T00:03:47.555Z,69.83
2018-07-19T00:06:14.694Z,69.30
2018-07-19T00:08:41.869Z,68.75
2018-07-19T00:11:08.980Z,71.48
2018-07-19T00:13:36.114Z,70.90
2018-07-19T00:16:03.279Z,72.26
2018-07-19T00:18:30.376Z,72.90
2018-07-19T00:20:57.864Z,71.97
2018-07-19T00:23:25.712Z,70.63
2018-07-19T00:25:53.080Z,71.39
2018-07-19T00:28:20.247Z,70.93
2018-07-19T00:30:47.448Z,70.15
2018-07-19T00:33:14.580Z,70.68
2018-07-19T00:35:41.756Z,71.62
2018-07-19T00:38:08.921Z,71.23
2018-07-19T00:40:36.036Z,72.56
2018-07-19T00:43:03.252Z,75.05
2018-07-19T00:45:30.392Z,73.12
2018-07-19T00:47:57.573Z,74.44
2018-07-19T00:50:24.710Z,72.80
2018-07-19T00:52:51.823Z,73.44
2018-07-19T00:55:18.984Z,74.95
2018-07-19T00:57:46.168Z,73.33
2018-07-19T01:00:13.280Z,72.32
2018-07-19T01:02:40.439Z,72.16
2018-07-19T01:05:07.549Z,73.09
2018-07-19T01:07:34.696Z,72.97
2018-07-19T01:10:01.893Z,73.12
2018-07-19T01:12:29.015Z,75.14
2018-07-19T01:14:56.136Z,74.30
2018-07-19T01:17:23.328Z,76.60
2018-07-19T01:19:50.461Z,74.85
2018-07-19T01:22:17.636Z,75.55
2018-07-19T01:24:44.805Z,76.44
2018-07-19T01:27:11.975Z,75.83
2018-07-19T01:29:39.101Z,75.40
2018-07-19T01:32:06.232Z,76.04
2018-07-19T01:34:33.416Z,75.75
2018-07-19T01:37:00.596Z,74.23
2018-07-19T01:39:27.748Z,74.63
2018-07-19T01:42:58.192Z,74.39
2018-07-19T01:45:25.311Z,75.01
2018-07-19T01:47:52.472Z,75.24
2018-07-19T01:50:19.590Z,74.49
2018-07-19T01:52:46.744Z,75.73
2018-07-19T01:55:13.948Z,74.86
2018-07-19T01:57:41.114Z,75.25
2018-07-19T02:00:08.333Z,74.90
2018-07-19T02:02:35.469Z,75.02
2018-07-19T02:05:03.060Z,75.93
2018-07-19T02:07:30.191Z,76.67
2018-07-19T02:09:57.335Z,76.11
2018-07-19T02:12:24.480Z,75.22
2018-07-19T02:14:51.631Z,78.94
2018-07-19T02:17:18.794Z,79.29
2018-07-19T02:19:45.944Z,78.99
2018-07-19T02:22:13.088Z,78.23
2018-07-19T02:24:40.208Z,78.13
2018-07-19T02:27:07.364Z,77.59
2018-07-19T02:29:34.517Z,78.46
2018-07-19T02:32:01.650Z,80.35
2018-07-19T02:34:28.804Z,80.70
2018-07-19T02:36:55.948Z,81.29
2018-07-19T02:39:23.084Z,79.82
2018-07-19T02:41:50.227Z,82.26
2018-07-19T02:44:17.439Z,83.21
2018-07-19T02:46:44.807Z,81.68
2018-07-19T02:49:12.277Z,79.30
2018-07-19T02:51:40.455Z,78.64
2018-07-19T02:54:07.717Z,77.64
2018-07-19T02:56:34.896Z,76.90
2018-07-19T02:59:02.181Z,76.85
2018-07-19T03:01:29.359Z,78.50
2018-07-19T03:03:56.523Z,79.75
2018-07-19T03:06:23.664Z,79.63
2018-07-19T03:08:50.873Z,81.84
2018-07-19T03:11:18.047Z,82.15
2018-07-19T03:13:45.131Z,80.56
2018-07-19T03:16:12.274Z,80.54
2018-07-19T03:18:39.376Z,79.56
2018-07-19T03:21:06.533Z,78.56
2018-07-19T03:23:33.692Z,78.04
2018-07-19T03:26:00.829Z,77.58
2018-07-19T03:28:27.960Z,77.36
2018-07-19T03:30:55.179Z,77.66
2018-07-19T03:33:22.306Z,77.15
2018-07-19T03:35:49.583Z,78.07
2018-07-19T03:38:16.771Z,81.98
2018-07-19T03:40:43.950Z,81.59
2018-07-19T03:43:11.148Z,79.38
2018-07-19T03:48:05.160Z,77.94
2018-07-19T03:50:32.336Z,77.63
2018-07-19T03:52:59.420Z,77.15
2018-07-19T03:55:26.572Z,77.47
2018-07-19T03:57:53.712Z,77.52
2018-07-19T04:00:20.859Z,77.29
2018-07-19T04:02:48.085Z,77.63
2018-07-19T04:05:15.213Z,78.40
2018-07-19T04:07:42.439Z,79.68
2018-07-19T04:10:09.601Z,78.68
2018-07-19T04:12:36.754Z,78.62
2018-07-19T04:15:04.042Z,80.46
2018-07-19T04:17:31.152Z,80.95
2018-07-19T04:19:58.284Z,82.54
2018-07-19T04:22:25.408Z,82.73
2018-07-19T04:24:52.751Z,81.21
2018-07-19T04:27:19.970Z,80.76
2018-07-19T04:29:47.215Z,79.31
2018-07-19T04:32:14.454Z,77.53
2018-07-19T04:34:41.517Z,77.13
2018-07-19T04:37:08.720Z,76.33
2018-07-19T04:39:35.883Z,75.96
2018-07-19T04:42:03.032Z,75.88
2018-07-19T04:44:30.180Z,76.44
2018-07-19T04:46:57.705Z,75.47
2018-07-19T04:49:25.828Z,75.67
2018-07-19T04:51:52.992Z,75.85
2018-07-19T04:54:20.124Z,76.90
2018-07-19T04:56:47.288Z,76.76
2018-07-19T04:59:14.388Z,75.74
2018-07-19T05:01:41.637Z,75.62
2018-07-19T05:04:08.739Z,74.53
2018-07-19T05:06:35.903Z,73.75
2018-07-19T05:09:04.748Z,73.28
2018-07-19T05:11:31.906Z,72.52
2018-07-19T05:13:59.096Z,73.43
2018-07-19T05:16:26.250Z,71.37
2018-07-19T05:18:53.381Z,71.25
2018-07-19T05:21:20.559Z,71.34
2018-07-19T05:23:47.697Z,73.05
2018-07-19T05:26:14.850Z,71.82
2018-07-19T05:28:41.998Z,70.87
2018-07-19T05:31:09.151Z,69.70
2018-07-19T05:33:36.324Z,69.39
2018-07-19T05:36:03.505Z,68.46
2018-07-19T05:38:30.675Z,68.45
2018-07-19T05:40:57.869Z,66.92
2018-07-19T05:43:25.068Z,67.96
2018-07-19T05:45:52.219Z,67.34
2018-07-19T05:48:19.422Z,66.25
2018-07-19T05:50:46.627Z,64.89
2018-07-19T05:53:13.748Z,64.54
2018-07-19T05:55:40.911Z,64.31
2018-07-19T05:58:08.115Z,63.83
2018-07-19T06:00:35.213Z,61.85
2018-07-19T06:03:02.434Z,61.36
2018-07-19T06:05:29.724Z,61.60
2018-07-19T06:07:56.835Z,59.76
2018-07-19T06:10:23.997Z,61.03
2018-07-19T06:12:51.131Z,59.96
2018-07-19T06:15:18.317Z,61.09
2018-07-19T06:17:45.448Z,59.13
2018-07-19T06:20:12.664Z,59.29
2018-07-19T06:22:39.865Z,58.27
2018-07-19T06:25:07.053Z,57.72
2018-07-19T06:27:34.234Z,57.38
2018-07-19T06:30:01.424Z,57.60
2018-07-19T06:32:28.565Z,54.53
2018-07-19T06:34:55.745Z,53.37
2018-07-19T06:37:22.928Z,52.57
2018-07-19T06:39:50.072Z,52.28
2018-07-19T06:42:17.254Z,51.36
2018-07-19T06:44:44.415Z,51.70
2018-07-19T06:47:12.225Z,52.70
2018-07-19T06:49:39.422Z,53.99
2018-07-19T06:52:06.725Z,49.78
2018-07-19T06:54:33.875Z,51.86
2018-07-19T06:57:01.020Z,50.40
2018-07-19T06:59:28.173Z,50.13
2018-07-19T07:01:55.308Z,49.51
2018-07-19T07:04:22.428Z,50.34
2018-07-19T07:06:49.584Z,48.62
2018-07-19T07:09:16.744Z,48.93
2018-07-19T07:11:43.888Z,51.28
2018-07-19T07:14:11.007Z,47.74
2018-07-19T07:16:38.175Z,46.99
2018-07-19T07:19:05.308Z,46.50
2018-07-19T07:21:32.458Z,46.67
2018-07-19T07:23:59.655Z,48.20
2018-07-19T07:26:26.803Z,45.50
2018-07-19T07:28:53.945Z,46.24
2018-07-19T07:31:21.076Z,46.85
2018-07-19T07:33:48.216Z,46.96
2018-07-19T07:36:15.467Z,45.01
2018-07-19T07:38:42.668Z,44.42
2018-07-19T07:41:09.893Z,47.86
2018-07-19T07:43:37.004Z,45.78
2018-07-19T07:46:04.268Z,46.13
2018-07-19T07:48:31.416Z,45.60
2018-07-19T07:50:58.726Z,46.24
2018-07-19T07:53:25.880Z,45.03
2018-07-19T07:55:53.037Z,46.52
2018-07-19T07:58:20.216Z,45.38
2018-07-19T08:00:47.405Z,45.31
2018-07-19T08:03:14.553Z,45.33
2018-07-19T08:05:41.665Z,44.93
2018-07-19T08:08:08.795Z,45.03
2018-07-19T08:10:35.955Z,45.21
2018-07-19T08:13:03.075Z,44.97
2018-07-19T08:15:30.233Z,42.42
2018-07-19T08:17:57.376Z,43.32
2018-07-19T08:20:24.548Z,43.07
2018-07-19T08:22:51.744Z,43.44
2018-07-19T08:25:18.912Z,41.08
2018-07-19T08:27:46.065Z,44.55
2018-07-19T08:30:13.229Z,43.71
2018-07-19T08:32:40.389Z,42.02
2018-07-19T08:35:07.573Z,41.54
2018-07-19T08:37:34.689Z,41.17
2018-07-19T08:40:01.897Z,41.11
2018-07-19T08:42:29.087Z,40.97
2018-07-19T08:44:56.281Z,40.91
2018-07-19T08:47:23.428Z,40.90
2018-07-19T08:49:50.639Z,40.50
2018-07-19T08:52:18.039Z,39.97
2018-07-19T08:54:45.251Z,41.17
2018-07-19T08:57:12.604Z,39.74
2018-07-19T08:59:39.816Z,40.05
2018-07-19T09:02:07.265Z,40.97
2018-07-19T09:04:34.425Z,38.83
2018-07-19T09:07:01.610Z,38.36
2018-07-19T09:09:28.735Z,39.48
2018-07-19T09:11:55.945Z,38.69
2018-07-19T09:14:23.118Z,38.44
2018-07-19T09:16:50.259Z,38.22
2018-07-19T09:19:17.396Z,37.85
2018-07-19T09:21:44.546Z,37.93
2018-07-19T09:24:11.711Z,37.59
2018-07-19T09:26:39.783Z,38.83
2018-07-19T09:29:06.893Z,38.66
2018-07-19T09:31:34.113Z,38.19
2018-07-19T09:34:01.287Z,38.20
2018-07-19T09:36:28.495Z,37.37
2018-07-19T09:38:55.672Z,35.45
2018-07-19T09:41:22.861Z,35.84
2018-07-19T09:43:50.335Z,37.19
2018-07-19T09:46:17.680Z,35.80
2018-07-19T09:48:44.853Z,36.05
2018-07-19T09:51:12.068Z,35.97
2018-07-19T09:53:39.276Z,35.62
2018-07-19T09:56:06.472Z,37.27
2018-07-19T09:58:33.640Z,36.60
2018-07-19T10:01:00.837Z,36.38
2018-07-19T10:03:28.010Z,36.51
2018-07-19T10:05:55.169Z,35.78
2018-07-19T10:08:22.313Z,35.02
2018-07-19T10:10:49.500Z,34.27
2018-07-19T10:13:16.690Z,34.78
2018-07-19T10:15:43.852Z,34.20
2018-07-19T10:18:10.955Z,35.11
2018-07-19T10:20:38.200Z,35.03
2018-07-19T10:23:05.341Z,35.19
2018-07-19T10:25:32.497Z,35.13
2018-07-19T10:27:59.672Z,35.40
2018-07-19T10:30:26.816Z,36.61
2018-07-19T10:32:54.040Z,34.83
2018-07-19T10:35:21.300Z,36.41
2018-07-19T10:37:48.537Z,35.15
2018-07-19T10:40:15.692Z,35.77
2018-07-19T10:42:42.828Z,36.36
2018-07-19T10:45:10.068Z,33.34
2018-07-19T10:47:37.256Z,33.94
2018-07-19T10:50:04.625Z,33.44
2018-07-19T10:52:31.764Z,31.68
2018-07-19T10:54:58.890Z,34.14
2018-07-19T10:57:26.114Z,35.36
2018-07-19T10:59:53.257Z,33.39
2018-07-19T11:02:20.425Z,33.16
2018-07-19T11:04:47.595Z,33.10
2018-07-19T11:07:14.766Z,32.70
2018-07-19T11:09:42.021Z,32.41
2018-07-19T11:12:09.209Z,30.48
2018-07-19T11:14:36.366Z,31.10
2018-07-19T11:17:03.509Z,32.08
2018-07-19T11:19:30.684Z,31.93
2018-07-19T11:21:57.812Z,32.47
2018-07-19T11:24:24.996Z,33.37
2018-07-19T11:26:52.128Z,31.84
2018-07-19T11:29:19.371Z,32.71
2018-07-19T11:31:46.584Z,30.77
2018-07-19T11:34:13.728Z,28.97
2018-07-19T11:36:40.861Z,30.07
2018-07-19T11:39:08.715Z,31.42
2018-07-19T11:41:36.619Z,31.01
2018-07-19T11:44:03.829Z,32.07
2018-07-19T11:46:30.973Z,31.01
2018-07-19T11:48:58.141Z,29.12
2018-07-19T11:51:25.281Z,30.76
2018-07-19T11:53:52.392Z,28.95
2018-07-19T11:56:19.552Z,30.52
2018-07-19T11:58:46.712Z,30.14
2018-07-19T12:01:13.885Z,28.99
2018-07-19T12:03:41.060Z,29.55
2018-07-19T12:06:08.220Z,29.52
2018-07-19T12:08:35.378Z,31.09
2018-07-19T12:11:02.505Z,29.28
2018-07-19T12:13:29.653Z,29.96
2018-07-19T12:15:56.788Z,27.31
2018-07-19T12:18:23.986Z,27.57
2018-07-19T12:20:51.152Z,27.51
2018-07-19T12:23:18.291Z,27.06
2018-07-19T12:25:45.471Z,28.03
2018-07-19T12:28:12.617Z,27.04
2018-07-19T12:30:39.836Z,26.53
2018-07-19T12:33:07.005Z,26.96
2018-07-19T12:35:34.100Z,27.53
2018-07-19T12:38:01.241Z,26.68
2018-07-19T12:40:28.423Z,28.10
2018-07-19T12:42:55.580Z,27.41
2018-07-19T12:45:22.740Z,27.30
2018-07-19T12:47:50.497Z,27.00
2018-07-19T12:50:17.607Z,25.92
2018-07-19T12:52:44.735Z,27.60
2018-07-19T12:55:11.875Z,27.44
2018-07-19T12:57:39.076Z,27.94
2018-07-19T13:00:07.310Z,25.97
2018-07-19T13:02:34.511Z,26.22
2018-07-19T13:05:01.752Z,26.80
2018-07-19T13:07:30.373Z,27.13
2018-07-19T13:10:02.940Z,25.90
2018-07-19T13:12:33.190Z,27.05
2018-07-19T13:15:00.410Z,25.45
2018-07-19T13:17:27.883Z,24.58
2018-07-19T13:19:55.151Z,24.81
2018-07-19T13:22:22.422Z,24.05
2018-07-19T13:24:49.752Z,24.39
2018-07-19T13:27:16.924Z,23.78
2018-07-19T13:29:44.136Z,24.83
2018-07-19T13:32:11.732Z,25.95
2018-07-19T13:34:38.970Z,23.95
2018-07-19T13:37:06.181Z,22.42
2018-07-19T13:39:33.323Z,23.25
2018-07-19T13:42:00.418Z,20.03
2018-07-19T13:44:27.535Z,21.22
2018-07-19T13:46:54.703Z,23.13
2018-07-19T13:49:21.844Z,21.68
2018-07-19T13:51:49.055Z,21.18
2018-07-19T13:54:27.676Z,24.00
2018-07-19T13:56:54.826Z,25.82
2018-07-19T13:59:21.994Z,25.38
2018-07-19T14:01:49.189Z,24.50
2018-07-19T14:04:16.309Z,24.08
2018-07-19T14:06:43.485Z,24.35
2018-07-19T14:09:13.058Z,23.52
2018-07-19T14:11:40.355Z,23.17
2018-07-19T14:14:07.544Z,22.98
2018-07-19T14:16:34.701Z,25.12
2018-07-19T14:19:01.872Z,24.84
2018-07-19T14:21:29.084Z,25.67
2018-07-19T14:23:56.242Z,23.85
2018-07-19T14:26:23.388Z,24.18
2018-07-19T14:28:50.522Z,23.68
2018-07-19T14:31:17.668Z,22.66
2018-07-19T14:33:44.875Z,23.86
2018-07-19T14:36:12.266Z,24.33
2018-07-19T14:38:39.441Z,22.46
2018-07-19T14:41:06.683Z,22.58
2018-07-19T14:43:33.880Z,23.21
2018-07-19T14:46:01.100Z,23.70
2018-07-19T14:48:28.291Z,24.72
2018-07-19T14:50:55.521Z,25.51
2018-07-19T14:53:22.704Z,23.63
2018-07-19T14:55:49.880Z,23.66
2018-07-19T14:58:17.045Z,22.84
2018-07-19T15:00:44.226Z,23.86
2018-07-19T15:03:11.418Z,24.77
2018-07-19T15:05:38.628Z,24.72
2018-07-19T15:08:05.845Z,23.24
2018-07-19T15:10:33.047Z,24.34
2018-07-19T15:13:00.317Z,22.82
2018-07-19T15:15:27.560Z,22.57
2018-07-19T15:17:54.740Z,22.28
2018-07-19T15:20:21.890Z,22.91
2018-07-19T15:22:49.074Z,22.70
2018-07-19T15:25:16.296Z,24.11
2018-07-19T15:27:43.545Z,25.64
2018-07-19T15:30:10.832Z,25.87
2018-07-19T15:32:38.122Z,24.31
2018-07-19T15:35:05.326Z,24.10
2018-07-19T15:37:32.606Z,24.07
2018-07-19T15:39:59.780Z,23.87
2018-07-19T15:42:26.981Z,24.32
2018-07-19T15:44:54.179Z,22.58
2018-07-19T15:47:21.388Z,22.96
2018-07-19T15:49:48.561Z,23.26
2018-07-19T15:52:15.721Z,24.21
2018-07-19T15:54:42.889Z,24.50
2018-07-19T15:57:10.086Z,23.36
2018-07-19T15:59:37.468Z,23.65
2018-07-19T16:02:04.669Z,23.62
2018-07-19T16:04:31.890Z,23.17
2018-07-19T16:06:59.164Z,23.47
2018-07-19T16:09:26.393Z,23.25
2018-07-19T16:11:53.578Z,22.94
2018-07-19T16:14:20.739Z,24.25
2018-07-19T16:16:47.932Z,22.87
2018-07-19T16:19:15.080Z,24.70
2018-07-19T16:21:42.238Z,26.14
2018-07-19T16:24:09.390Z,26.22
2018-07-19T16:26:36.579Z,27.23
2018-07-19T16:29:03.800Z,26.68
2018-07-19T16:31:31.091Z,26.71
2018-07-19T16:33:58.345Z,26.27
2018-07-19T16:36:25.538Z,27.16
2018-07-19T16:38:52.698Z,28.13
2018-07-19T16:41:19.901Z,26.44
2018-07-19T16:43:47.091Z,26.64
2018-07-19T16:46:14.363Z,26.36
2018-07-19T16:48:41.526Z,26.15
2018-07-19T16:51:08.676Z,27.58
2018-07-19T16:53:35.942Z,28.55
2018-07-19T16:56:03.092Z,27.35
2018-07-19T16:58:30.405Z,26.96
2018-07-19T17:00:57.614Z,27.43
2018-07-19T17:03:24.817Z,27.89
2018-07-19T17:05:52.104Z,27.27
2018-07-19T17:08:19.284Z,27.81
2018-07-19T17:10:46.504Z,26.21
2018-07-19T17:13:13.765Z,26.64
2018-07-19T17:15:40.995Z,27.15
2018-07-19T17:18:08.295Z,27.64
2018-07-19T17:20:35.559Z,28.81
2018-07-19T17:23:02.729Z,28.58
2018-07-19T17:25:29.892Z,28.23
2018-07-19T17:27:57.069Z,28.06
2018-07-19T17:30:24.275Z,28.15
2018-07-19T17:32:51.473Z,28.27
2018-07-19T17:35:18.674Z,27.55
2018-07-19T17:37:45.920Z,29.07
2018-07-19T17:40:13.114Z,28.39
2018-07-19T17:42:40.272Z,27.55
2018-07-19T17:45:07.560Z,27.28
2018-07-19T17:47:34.723Z,28.75
2018-07-19T17:50:01.891Z,29.41
2018-07-19T17:52:29.067Z,28.49
2018-07-19T17:54:56.240Z,29.68
2018-07-19T17:57:23.481Z,28.57
2018-07-19T17:59:50.590Z,29.39
2018-07-19T18:02:17.775Z,29.93
2018-07-19T18:04:44.916Z,30.11
2018-07-19T18:07:12.168Z,31.19
2018-07-19T18:09:39.342Z,29.97
2018-07-19T18:12:06.695Z,30.39
2018-07-19T18:14:33.808Z,31.06
2018-07-19T18:17:00.944Z,30.29
2018-07-19T18:19:28.105Z,32.15
2018-07-19T18:21:55.276Z,32.32
2018-07-19T18:24:22.467Z,30.45
2018-07-19T18:26:49.668Z,33.02
2018-07-19T18:29:16.868Z,32.56
2018-07-19T18:31:44.030Z,33.23
2018-07-19T18:34:11.170Z,33.70
2018-07-19T18:36:38.395Z,33.32
2018-07-19T18:39:08.128Z,35.13
2018-07-19T18:41:35.303Z,34.92
2018-07-19T18:44:02.470Z,36.02
2018-07-19T18:46:29.585Z,36.44
2018-07-19T18:48:56.757Z,36.09
2018-07-19T18:51:23.948Z,36.89
2018-07-19T18:53:51.163Z,38.80
2018-07-19T18:56:18.320Z,40.74
2018-07-19T18:58:45.440Z,41.31
2018-07-19T19:01:12.784Z,42.06
2018-07-19T19:03:39.977Z,41.75
2018-07-19T19:06:07.351Z,41.37
2018-07-19T19:08:34.508Z,41.41
2018-07-19T19:11:01.854Z,42.25
2018-07-19T19:13:29.064Z,43.39
2018-07-19T19:15:56.229Z,43.15
2018-07-19T19:18:23.454Z,40.13
2018-07-19T19:20:50.709Z,41.36
2018-07-19T19:23:17.971Z,42.36
2018-07-19T19:25:45.168Z,42.58
2018-07-19T19:28:12.605Z,41.69
2018-07-19T19:30:39.872Z,42.06
2018-07-19T19:33:07.093Z,43.50
2018-07-19T19:35:34.381Z,45.69
2018-07-19T19:38:01.732Z,46.87
2018-07-19T19:40:28.934Z,44.80
2018-07-19T19:42:56.096Z,45.18
2018-07-19T19:45:23.304Z,45.28
2018-07-19T19:47:50.488Z,45.06
2018-07-19T19:50:17.679Z,46.83
2018-07-19T19:52:44.818Z,46.05
2018-07-19T19:55:11.992Z,46.20
2018-07-19T19:57:39.183Z,45.98
2018-07-19T20:00:06.436Z,46.75
2018-07-19T20:02:33.631Z,46.53
2018-07-19T20:05:00.824Z,47.69
2018-07-19T20:07:28.004Z,47.75
2018-07-19T20:09:55.433Z,46.86
2018-07-19T20:12:22.852Z,47.32
2018-07-19T20:14:50.283Z,47.52
2018-07-19T20:17:17.679Z,47.28
2018-07-19T20:19:45.072Z,46.75
2018-07-19T20:22:12.572Z,48.19
2018-07-19T20:24:40.519Z,47.77
2018-07-19T20:27:14.776Z,47.46
2018-07-19T20:29:42.063Z,49.17
2018-07-19T20:32:09.311Z,49.17
2018-07-19T20:34:36.612Z,49.69
2018-07-19T20:37:03.752Z,50.05
2018-07-19T20:39:30.987Z,49.69
2018-07-19T20:41:58.196Z,50.29
2018-07-19T20:44:25.421Z,49.69
2018-07-19T20:46:52.572Z,51.09
2018-07-19T20:49:19.721Z,51.23
2018-07-19T20:51:46.846Z,51.94
2018-07-19T20:54:14.080Z,52.36
2018-07-19T20:56:41.253Z,51.93
2018-07-19T20:59:08.436Z,51.84
2018-07-19T21:01:35.599Z,50.78
2018-07-19T21:04:02.761Z,50.59
2018-07-19T21:06:29.940Z,50.62
2018-07-19T21:08:57.127Z,50.90
2018-07-19T21:11:24.307Z,51.06
2018-07-19T21:13:51.516Z,51.07
2018-07-19T21:16:18.636Z,51.73
2018-07-19T21:18:45.796Z,52.75
2018-07-19T21:21:12.923Z,56.27
2018-07-19T21:23:40.092Z,55.95
2018-07-19T21:26:07.278Z,57.02
2018-07-19T21:28:34.437Z,57.18
2018-07-19T21:31:01.566Z,55.75
2018-07-19T21:33:28.694Z,54.10
2018-07-19T21:35:55.864Z,53.72
2018-07-19T21:38:22.975Z,55.07
2018-07-19T21:40:50.107Z,57.07
2018-07-19T21:43:17.973Z,56.81
2018-07-19T21:45:51.782Z,56.17
2018-07-19T21:48:18.912Z,57.65
2018-07-19T21:50:46.064Z,57.27
2018-07-19T21:53:13.628Z,59.06
2018-07-19T21:55:40.789Z,61.48
2018-07-19T21:58:07.933Z,58.85
2018-07-19T22:00:39.643Z,59.01
2018-07-19T22:03:06.839Z,58.81
2018-07-19T22:05:33.936Z,60.83
2018-07-19T22:08:01.158Z,58.95
2018-07-19T22:10:28.309Z,58.02
2018-07-19T22:12:55.422Z,57.46
2018-07-19T22:15:22.663Z,59.41
2018-07-19T22:17:49.864Z,61.00
2018-07-19T22:20:17.020Z,60.63
2018-07-19T22:22:44.225Z,60.22
2018-07-19T22:25:11.333Z,61.20
2018-07-19T22:27:38.436Z,60.82
2018-07-19T22:30:05.713Z,60.35
2018-07-19T22:32:39.686Z,62.05
2018-07-19T22:35:06.796Z,60.78
2018-07-19T22:37:33.935Z,62.97
2018-07-19T22:40:01.116Z,61.93
2018-07-19T22:42:28.179Z,62.15
2018-07-19T22:44:55.291Z,61.77
2018-07-19T22:47:22.548Z,61.21
2018-07-19T22:49:49.652Z,63.62
2018-07-19T22:52:16.776Z,63.76
2018-07-19T22:54:43.932Z,65.31
2018-07-19T22:57:11.160Z,65.26
2018-07-19T22:59:38.338Z,64.43
2018-07-19T23:02:05.467Z,65.47
2018-07-19T23:04:32.607Z,64.32
2018-07-19T23:06:59.742Z,65.15
2018-07-19T23:09:26.847Z,64.01
2018-07-19T23:11:54.099Z,64.28
2018-07-19T23:14:21.216Z,64.64
2018-07-19T23:16:48.320Z,64.07
2018-07-19T23:19:15.482Z,62.97
2018-07-19T23:21:42.614Z,64.40
2018-07-19T23:24:09.764Z,67.14
2018-07-19T23:26:36.959Z,68.32
2018-07-19T23:29:04.357Z,67.71
2018-07-19T23:31:31.501Z,68.13
2018-07-19T23:33:58.762Z,67.04
2018-07-19T23:36:31.852Z,67.87
2018-07-19T23:39:04.508Z,68.47
2018-07-19T23:41:39.784Z,69.92
2018-07-19T23:44:12.631Z,68.07
2018-07-19T23:46:45.575Z,67.52
2018-07-19T23:49:12.751Z,66.50
2018-07-19T23:51:39.999Z,64.77
2018-07-19T23:54:07.183Z,65.13
2018-07-19T23:56:34.855Z,65.51
2018-07-19T23:59:02.041Z,68.34
